sensor_id;sensor_type;location;lat;lon;timestamp;temperature;humidity
18160;DHT22;9205;52.032;4.314;2022-07-29T00:01:53;17.90;99.90
18160;DHT22;9205;52.032;4.314;2022-07-29T00:04:20;17.90;99.90
18160;DHT22;9205;52.032;4.314;2022-07-29T00:06:48;17.90;99.90
18160;DHT22;9205;52.032;4.314;2022-07-29T00:09:15;17.90;99.90
18160;DHT22;9205;52.032;4.314;2022-07-29T00:11:42;18.00;99.90
18160;DHT22;9205;52.032;4.314;2022-07-29T00:14:11;17.80;99.90
18160;DHT22;9205;52.032;4.314;2022-07-29T00:16:39;17.80;99.90
18160;DHT22;9205;52.032;4.314;2022-07-29T00:19:06;17.70;99.90
18160;DHT22;9205;52.032;4.314;2022-07-29T00:21:33;17.70;99.90
18160;DHT22;9205;52.032;4.314;2022-07-29T00:24:01;17.80;99.90
18160;DHT22;9205;52.032;4.314;2022-07-29T00:26:28;17.80;99.90
18160;DHT22;9205;52.032;4.314;2022-07-29T00:28:58;17.80;99.90
18160;DHT22;9205;52.032;4.314;2022-07-29T00:31:27;17.70;99.90
18160;DHT22;9205;52.032;4.314;2022-07-29T00:33:54;17.70;99.90
18160;DHT22;9205;52.032;4.314;2022-07-29T00:36:22;17.70;99.90
18160;DHT22;9205;52.032;4.314;2022-07-29T00:38:49;17.70;99.90
18160;DHT22;9205;52.032;4.314;2022-07-29T00:41:17;17.70;99.90
18160;DHT22;9205;52.032;4.314;2022-07-29T00:43:45;17.70;99.90
18160;DHT22;9205;52.032;4.314;2022-07-29T00:46:12;17.70;99.90
18160;DHT22;9205;52.032;4.314;2022-07-29T00:48:41;17.70;99.90
18160;DHT22;9205;52.032;4.314;2022-07-29T00:51:08;17.60;99.90
18160;DHT22;9205;52.032;4.314;2022-07-29T00:53:36;17.60;99.90
18160;DHT22;9205;52.032;4.314;2022-07-29T00:56:04;17.60;99.90
18160;DHT22;9205;52.032;4.314;2022-07-29T00:58:32;17.60;99.90
18160;DHT22;9205;52.032;4.314;2022-07-29T01:00:59;17.60;99.90
18160;DHT22;9205;52.032;4.314;2022-07-29T01:03:27;17.60;99.90
18160;DHT22;9205;52.032;4.314;2022-07-29T01:05:55;17.60;99.90
18160;DHT22;9205;52.032;4.314;2022-07-29T01:08:23;17.60;99.90
18160;DHT22;9205;52.032;4.314;2022-07-29T01:10:51;17.60;99.90
18160;DHT22;9205;52.032;4.314;2022-07-29T01:13:20;17.40;99.90
18160;DHT22;9205;52.032;4.314;2022-07-29T01:15:51;17.40;99.90
18160;DHT22;9205;52.032;4.314;2022-07-29T01:18:27;17.50;99.90
18160;DHT22;9205;52.032;4.314;2022-07-29T01:21:23;17.40;99.90
18160;DHT22;9205;52.032;4.314;2022-07-29T01:24:30;17.40;99.90
18160;DHT22;9205;52.032;4.314;2022-07-29T01:27:16;17.40;99.90
18160;DHT22;9205;52.032;4.314;2022-07-29T01:30:02;17.40;99.90
18160;DHT22;9205;52.032;4.314;2022-07-29T01:32:33;17.40;99.90
18160;DHT22;9205;52.032;4.314;2022-07-29T01:35:06;17.40;99.90
18160;DHT22;9205;52.032;4.314;2022-07-29T01:37:45;17.40;99.90
18160;DHT22;9205;52.032;4.314;2022-07-29T01:40:20;17.50;99.90
18160;DHT22;9205;52.032;4.314;2022-07-29T01:42:52;17.40;99.90
18160;DHT22;9205;52.032;4.314;2022-07-29T01:45:28;17.30;99.90
18160;DHT22;9205;52.032;4.314;2022-07-29T01:48:12;17.30;99.90
18160;DHT22;9205;52.032;4.314;2022-07-29T01:50:48;17.20;99.90
18160;DHT22;9205;52.032;4.314;2022-07-29T01:53:25;17.30;99.90
18160;DHT22;9205;52.032;4.314;2022-07-29T01:55:57;17.30;99.90
18160;DHT22;9205;52.032;4.314;2022-07-29T01:58:28;17.30;99.90
18160;DHT22;9205;52.032;4.314;2022-07-29T02:01:00;17.20;99.90
18160;DHT22;9205;52.032;4.314;2022-07-29T02:03:30;17.20;99.90
18160;DHT22;9205;52.032;4.314;2022-07-29T02:06:01;17.20;99.90
18160;DHT22;9205;52.032;4.314;2022-07-29T02:08:32;17.10;99.90
18160;DHT22;9205;52.032;4.314;2022-07-29T02:11:02;17.10;99.90
18160;DHT22;9205;52.032;4.314;2022-07-29T02:13:32;17.20;99.90
18160;DHT22;9205;52.032;4.314;2022-07-29T02:16:06;17.10;99.90
18160;DHT22;9205;52.032;4.314;2022-07-29T02:18:36;17.20;99.90
18160;DHT22;9205;52.032;4.314;2022-07-29T02:21:06;17.10;99.90
18160;DHT22;9205;52.032;4.314;2022-07-29T02:23:35;17.10;99.90
18160;DHT22;9205;52.032;4.314;2022-07-29T02:26:05;17.20;99.90
18160;DHT22;9205;52.032;4.314;2022-07-29T02:28:34;17.20;99.90
18160;DHT22;9205;52.032;4.314;2022-07-29T02:31:03;17.20;99.90
18160;DHT22;9205;52.032;4.314;2022-07-29T02:33:33;17.20;99.90
18160;DHT22;9205;52.032;4.314;2022-07-29T02:36:02;17.00;99.90
18160;DHT22;9205;52.032;4.314;2022-07-29T02:38:30;17.10;99.90
18160;DHT22;9205;52.032;4.314;2022-07-29T02:41:26;17.00;99.90
18160;DHT22;9205;52.032;4.314;2022-07-29T02:43:57;17.00;99.90
18160;DHT22;9205;52.032;4.314;2022-07-29T02:46:31;17.00;99.90
18160;DHT22;9205;52.032;4.314;2022-07-29T02:49:10;17.00;99.90
18160;DHT22;9205;52.032;4.314;2022-07-29T02:51:45;17.10;99.90
18160;DHT22;9205;52.032;4.314;2022-07-29T02:54:20;17.00;99.90
18160;DHT22;9205;52.032;4.314;2022-07-29T02:56:52;17.00;99.90
18160;DHT22;9205;52.032;4.314;2022-07-29T02:59:24;17.00;99.90
18160;DHT22;9205;52.032;4.314;2022-07-29T03:01:58;16.90;99.90
18160;DHT22;9205;52.032;4.314;2022-07-29T03:04:27;16.90;99.90
18160;DHT22;9205;52.032;4.314;2022-07-29T03:06:59;16.80;99.90
18160;DHT22;9205;52.032;4.314;2022-07-29T03:09:30;16.80;99.90
18160;DHT22;9205;52.032;4.314;2022-07-29T03:11:59;16.80;99.90
18160;DHT22;9205;52.032;4.314;2022-07-29T03:14:28;16.80;99.90
18160;DHT22;9205;52.032;4.314;2022-07-29T03:16:58;16.80;99.90
18160;DHT22;9205;52.032;4.314;2022-07-29T03:19:27;16.80;99.90
18160;DHT22;9205;52.032;4.314;2022-07-29T03:21:56;16.90;99.90
18160;DHT22;9205;52.032;4.314;2022-07-29T03:24:25;16.90;99.90
18160;DHT22;9205;52.032;4.314;2022-07-29T03:26:54;16.90;99.90
18160;DHT22;9205;52.032;4.314;2022-07-29T03:29:22;16.80;99.90
18160;DHT22;9205;52.032;4.314;2022-07-29T03:31:50;16.80;99.90
18160;DHT22;9205;52.032;4.314;2022-07-29T03:34:19;16.70;99.90
18160;DHT22;9205;52.032;4.314;2022-07-29T03:36:46;16.80;99.90
18160;DHT22;9205;52.032;4.314;2022-07-29T03:39:17;16.70;99.90
18160;DHT22;9205;52.032;4.314;2022-07-29T03:41:49;16.70;99.90
18160;DHT22;9205;52.032;4.314;2022-07-29T03:44:22;16.70;99.90
18160;DHT22;9205;52.032;4.314;2022-07-29T03:46:55;16.80;99.90
18160;DHT22;9205;52.032;4.314;2022-07-29T03:49:31;16.70;99.90
18160;DHT22;9205;52.032;4.314;2022-07-29T03:52:03;16.80;99.90
18160;DHT22;9205;52.032;4.314;2022-07-29T03:54:32;16.70;99.90
18160;DHT22;9205;52.032;4.314;2022-07-29T03:57:01;16.80;99.90
18160;DHT22;9205;52.032;4.314;2022-07-29T03:59:31;16.70;99.90
18160;DHT22;9205;52.032;4.314;2022-07-29T04:02:05;16.80;99.90
18160;DHT22;9205;52.032;4.314;2022-07-29T04:04:36;16.80;99.90
18160;DHT22;9205;52.032;4.314;2022-07-29T04:07:04;16.80;99.90
18160;DHT22;9205;52.032;4.314;2022-07-29T04:09:32;16.80;99.90
18160;DHT22;9205;52.032;4.314;2022-07-29T04:12:00;16.80;99.90
18160;DHT22;9205;52.032;4.314;2022-07-29T04:14:28;16.80;99.90
18160;DHT22;9205;52.032;4.314;2022-07-29T04:16:55;16.80;99.90
18160;DHT22;9205;52.032;4.314;2022-07-29T04:19:22;16.80;99.90
18160;DHT22;9205;52.032;4.314;2022-07-29T04:21:50;16.70;99.90
18160;DHT22;9205;52.032;4.314;2022-07-29T04:24:18;16.70;99.90
18160;DHT22;9205;52.032;4.314;2022-07-29T04:26:45;16.70;99.90
18160;DHT22;9205;52.032;4.314;2022-07-29T04:29:13;16.70;99.90
18160;DHT22;9205;52.032;4.314;2022-07-29T04:31:41;16.70;99.90
18160;DHT22;9205;52.032;4.314;2022-07-29T04:34:09;16.60;99.90
18160;DHT22;9205;52.032;4.314;2022-07-29T04:36:37;16.70;99.90
18160;DHT22;9205;52.032;4.314;2022-07-29T04:39:05;16.70;99.90
18160;DHT22;9205;52.032;4.314;2022-07-29T04:41:32;16.70;99.90
18160;DHT22;9205;52.032;4.314;2022-07-29T04:44:00;16.60;99.90
18160;DHT22;9205;52.032;4.314;2022-07-29T04:46:30;16.60;99.90
18160;DHT22;9205;52.032;4.314;2022-07-29T04:48:58;16.60;99.90
18160;DHT22;9205;52.032;4.314;2022-07-29T04:51:25;16.60;99.90
18160;DHT22;9205;52.032;4.314;2022-07-29T04:53:52;16.60;99.90
18160;DHT22;9205;52.032;4.314;2022-07-29T04:56:20;16.60;99.90
18160;DHT22;9205;52.032;4.314;2022-07-29T04:58:48;16.60;99.90
18160;DHT22;9205;52.032;4.314;2022-07-29T05:01:15;16.60;99.90
18160;DHT22;9205;52.032;4.314;2022-07-29T05:03:42;16.60;99.90
18160;DHT22;9205;52.032;4.314;2022-07-29T05:06:09;16.50;99.90
18160;DHT22;9205;52.032;4.314;2022-07-29T05:08:37;16.60;99.90
18160;DHT22;9205;52.032;4.314;2022-07-29T05:11:04;16.60;99.90
18160;DHT22;9205;52.032;4.314;2022-07-29T05:13:33;16.60;99.90
18160;DHT22;9205;52.032;4.314;2022-07-29T05:16:00;16.70;99.90
18160;DHT22;9205;52.032;4.314;2022-07-29T05:18:27;16.80;99.90
18160;DHT22;9205;52.032;4.314;2022-07-29T05:20:54;16.80;99.90
18160;DHT22;9205;52.032;4.314;2022-07-29T05:23:21;16.80;99.90
18160;DHT22;9205;52.032;4.314;2022-07-29T05:25:49;16.90;99.90
18160;DHT22;9205;52.032;4.314;2022-07-29T05:28:17;16.80;99.90
18160;DHT22;9205;52.032;4.314;2022-07-29T05:30:45;16.90;99.90
18160;DHT22;9205;52.032;4.314;2022-07-29T05:33:13;17.00;99.90
18160;DHT22;9205;52.032;4.314;2022-07-29T05:35:41;17.00;99.90
18160;DHT22;9205;52.032;4.314;2022-07-29T05:38:08;17.10;99.90
18160;DHT22;9205;52.032;4.314;2022-07-29T05:40:35;16.90;99.90
18160;DHT22;9205;52.032;4.314;2022-07-29T05:43:02;17.00;99.90
18160;DHT22;9205;52.032;4.314;2022-07-29T05:45:29;17.10;99.90
18160;DHT22;9205;52.032;4.314;2022-07-29T05:47:58;17.10;99.90
18160;DHT22;9205;52.032;4.314;2022-07-29T05:50:25;17.20;99.90
18160;DHT22;9205;52.032;4.314;2022-07-29T05:52:52;17.30;99.90
18160;DHT22;9205;52.032;4.314;2022-07-29T05:55:19;17.30;99.90
18160;DHT22;9205;52.032;4.314;2022-07-29T05:57:47;17.30;99.90
18160;DHT22;9205;52.032;4.314;2022-07-29T06:00:14;17.30;99.90
18160;DHT22;9205;52.032;4.314;2022-07-29T06:02:42;17.30;99.90
18160;DHT22;9205;52.032;4.314;2022-07-29T06:05:11;17.30;99.90
18160;DHT22;9205;52.032;4.314;2022-07-29T06:07:38;17.20;99.90
18160;DHT22;9205;52.032;4.314;2022-07-29T06:10:07;17.30;99.90
18160;DHT22;9205;52.032;4.314;2022-07-29T06:12:35;17.30;99.90
18160;DHT22;9205;52.032;4.314;2022-07-29T06:15:02;17.40;99.90
18160;DHT22;9205;52.032;4.314;2022-07-29T06:17:31;17.30;99.90
18160;DHT22;9205;52.032;4.314;2022-07-29T06:19:58;17.40;99.90
18160;DHT22;9205;52.032;4.314;2022-07-29T06:22:26;17.50;99.90
18160;DHT22;9205;52.032;4.314;2022-07-29T06:24:54;17.50;99.90
18160;DHT22;9205;52.032;4.314;2022-07-29T06:27:21;17.60;99.90
18160;DHT22;9205;52.032;4.314;2022-07-29T06:29:48;17.60;99.90
18160;DHT22;9205;52.032;4.314;2022-07-29T06:32:15;17.60;99.90
18160;DHT22;9205;52.032;4.314;2022-07-29T06:34:43;17.70;99.90
18160;DHT22;9205;52.032;4.314;2022-07-29T06:37:10;17.80;99.90
18160;DHT22;9205;52.032;4.314;2022-07-29T06:39:38;17.80;99.90
18160;DHT22;9205;52.032;4.314;2022-07-29T06:42:06;17.90;99.90
18160;DHT22;9205;52.032;4.314;2022-07-29T06:44:33;17.90;99.90
18160;DHT22;9205;52.032;4.314;2022-07-29T06:47:00;18.00;99.90
18160;DHT22;9205;52.032;4.314;2022-07-29T06:49:28;17.90;99.90
18160;DHT22;9205;52.032;4.314;2022-07-29T06:51:55;17.90;99.90
18160;DHT22;9205;52.032;4.314;2022-07-29T06:54:22;18.00;99.90
18160;DHT22;9205;52.032;4.314;2022-07-29T06:56:51;18.00;99.90
18160;DHT22;9205;52.032;4.314;2022-07-29T06:59:18;17.90;99.90
18160;DHT22;9205;52.032;4.314;2022-07-29T07:01:45;17.90;99.90
18160;DHT22;9205;52.032;4.314;2022-07-29T07:04:13;17.90;99.90
18160;DHT22;9205;52.032;4.314;2022-07-29T07:06:40;17.90;99.90
18160;DHT22;9205;52.032;4.314;2022-07-29T07:09:07;17.90;99.90
18160;DHT22;9205;52.032;4.314;2022-07-29T07:11:35;17.90;99.90
18160;DHT22;9205;52.032;4.314;2022-07-29T07:14:03;17.90;99.90
18160;DHT22;9205;52.032;4.314;2022-07-29T07:16:31;17.90;99.90
18160;DHT22;9205;52.032;4.314;2022-07-29T07:18:58;17.90;99.90
18160;DHT22;9205;52.032;4.314;2022-07-29T07:21:25;18.00;99.90
18160;DHT22;9205;52.032;4.314;2022-07-29T07:23:53;18.00;99.90
18160;DHT22;9205;52.032;4.314;2022-07-29T07:26:20;18.10;99.90
18160;DHT22;9205;52.032;4.314;2022-07-29T07:28:47;18.10;99.90
18160;DHT22;9205;52.032;4.314;2022-07-29T07:31:15;18.20;99.90
18160;DHT22;9205;52.032;4.314;2022-07-29T07:33:43;18.20;99.90
18160;DHT22;9205;52.032;4.314;2022-07-29T07:36:11;18.20;99.90
18160;DHT22;9205;52.032;4.314;2022-07-29T07:38:38;18.30;99.90
18160;DHT22;9205;52.032;4.314;2022-07-29T07:41:05;18.40;99.90
18160;DHT22;9205;52.032;4.314;2022-07-29T07:43:32;18.40;99.90
18160;DHT22;9205;52.032;4.314;2022-07-29T07:46:00;18.50;99.90
18160;DHT22;9205;52.032;4.314;2022-07-29T07:48:28;18.60;99.90
18160;DHT22;9205;52.032;4.314;2022-07-29T07:50:56;18.60;99.90
18160;DHT22;9205;52.032;4.314;2022-07-29T07:53:23;18.70;99.90
18160;DHT22;9205;52.032;4.314;2022-07-29T07:55:51;18.70;99.90
18160;DHT22;9205;52.032;4.314;2022-07-29T07:58:18;18.70;99.90
18160;DHT22;9205;52.032;4.314;2022-07-29T08:00:45;18.70;99.90
18160;DHT22;9205;52.032;4.314;2022-07-29T08:03:12;18.70;99.90
18160;DHT22;9205;52.032;4.314;2022-07-29T08:05:41;18.60;99.90
18160;DHT22;9205;52.032;4.314;2022-07-29T08:08:08;18.60;99.90
18160;DHT22;9205;52.032;4.314;2022-07-29T08:10:36;18.70;99.90
18160;DHT22;9205;52.032;4.314;2022-07-29T08:13:24;18.80;99.90
18160;DHT22;9205;52.032;4.314;2022-07-29T08:15:55;18.80;99.90
18160;DHT22;9205;52.032;4.314;2022-07-29T08:18:28;18.90;99.90
18160;DHT22;9205;52.032;4.314;2022-07-29T08:20:58;18.90;99.90
18160;DHT22;9205;52.032;4.314;2022-07-29T08:23:26;19.10;99.90
18160;DHT22;9205;52.032;4.314;2022-07-29T08:26:00;19.10;99.90
18160;DHT22;9205;52.032;4.314;2022-07-29T08:28:27;19.10;99.90
18160;DHT22;9205;52.032;4.314;2022-07-29T08:30:54;19.20;99.90
18160;DHT22;9205;52.032;4.314;2022-07-29T08:33:22;19.20;99.90
18160;DHT22;9205;52.032;4.314;2022-07-29T08:35:49;19.20;99.90
18160;DHT22;9205;52.032;4.314;2022-07-29T08:38:18;19.20;99.90
18160;DHT22;9205;52.032;4.314;2022-07-29T08:40:46;19.30;99.90
18160;DHT22;9205;52.032;4.314;2022-07-29T08:43:13;19.30;99.90
18160;DHT22;9205;52.032;4.314;2022-07-29T08:45:42;19.50;99.90
18160;DHT22;9205;52.032;4.314;2022-07-29T08:48:12;19.60;99.90
18160;DHT22;9205;52.032;4.314;2022-07-29T08:50:43;19.50;99.90
18160;DHT22;9205;52.032;4.314;2022-07-29T08:53:18;19.50;99.90
18160;DHT22;9205;52.032;4.314;2022-07-29T08:55:47;19.50;99.90
18160;DHT22;9205;52.032;4.314;2022-07-29T08:58:16;19.50;99.90
18160;DHT22;9205;52.032;4.314;2022-07-29T09:00:48;19.60;99.90
18160;DHT22;9205;52.032;4.314;2022-07-29T09:03:19;19.60;99.90
18160;DHT22;9205;52.032;4.314;2022-07-29T09:05:49;19.80;99.90
18160;DHT22;9205;52.032;4.314;2022-07-29T09:08:19;19.80;99.90
18160;DHT22;9205;52.032;4.314;2022-07-29T09:10:46;19.80;99.90
18160;DHT22;9205;52.032;4.314;2022-07-29T09:13:14;19.80;99.90
18160;DHT22;9205;52.032;4.314;2022-07-29T09:15:42;19.90;99.90
18160;DHT22;9205;52.032;4.314;2022-07-29T09:18:09;19.90;99.90
18160;DHT22;9205;52.032;4.314;2022-07-29T09:20:37;19.90;99.90
18160;DHT22;9205;52.032;4.314;2022-07-29T09:23:24;19.90;99.90
18160;DHT22;9205;52.032;4.314;2022-07-29T09:25:51;19.90;99.90
18160;DHT22;9205;52.032;4.314;2022-07-29T09:28:18;19.90;99.90
18160;DHT22;9205;52.032;4.314;2022-07-29T09:30:53;20.00;99.90
18160;DHT22;9205;52.032;4.314;2022-07-29T09:33:22;20.00;99.90
18160;DHT22;9205;52.032;4.314;2022-07-29T09:36:00;20.10;99.90
18160;DHT22;9205;52.032;4.314;2022-07-29T09:38:32;20.20;99.90
18160;DHT22;9205;52.032;4.314;2022-07-29T09:41:00;20.20;99.90
18160;DHT22;9205;52.032;4.314;2022-07-29T09:43:29;20.40;99.90
18160;DHT22;9205;52.032;4.314;2022-07-29T09:46:09;20.40;99.90
18160;DHT22;9205;52.032;4.314;2022-07-29T09:48:37;20.40;99.90
18160;DHT22;9205;52.032;4.314;2022-07-29T09:51:04;20.40;99.90
18160;DHT22;9205;52.032;4.314;2022-07-29T09:53:34;20.50;99.90
18160;DHT22;9205;52.032;4.314;2022-07-29T09:56:04;20.60;99.90
18160;DHT22;9205;52.032;4.314;2022-07-29T09:58:32;20.70;99.90
18160;DHT22;9205;52.032;4.314;2022-07-29T10:01:00;20.80;99.90
18160;DHT22;9205;52.032;4.314;2022-07-29T10:03:28;20.90;99.90
18160;DHT22;9205;52.032;4.314;2022-07-29T10:06:06;20.90;99.90
18160;DHT22;9205;52.032;4.314;2022-07-29T10:08:36;20.90;99.90
18160;DHT22;9205;52.032;4.314;2022-07-29T10:11:11;21.00;99.90
18160;DHT22;9205;52.032;4.314;2022-07-29T10:13:41;21.10;99.90
18160;DHT22;9205;52.032;4.314;2022-07-29T10:16:10;21.10;99.90
18160;DHT22;9205;52.032;4.314;2022-07-29T10:18:38;21.20;99.90
18160;DHT22;9205;52.032;4.314;2022-07-29T10:21:07;21.20;99.90
18160;DHT22;9205;52.032;4.314;2022-07-29T10:23:37;21.30;99.90
18160;DHT22;9205;52.032;4.314;2022-07-29T10:26:05;21.40;99.90
18160;DHT22;9205;52.032;4.314;2022-07-29T10:28:33;21.40;99.90
18160;DHT22;9205;52.032;4.314;2022-07-29T10:31:04;21.60;99.90
18160;DHT22;9205;52.032;4.314;2022-07-29T10:33:45;21.70;99.90
18160;DHT22;9205;52.032;4.314;2022-07-29T10:36:32;21.80;99.90
18160;DHT22;9205;52.032;4.314;2022-07-29T10:39:19;21.80;99.90
18160;DHT22;9205;52.032;4.314;2022-07-29T10:42:11;21.80;99.90
18160;DHT22;9205;52.032;4.314;2022-07-29T10:44:44;21.90;99.90
18160;DHT22;9205;52.032;4.314;2022-07-29T10:47:20;22.00;99.90
18160;DHT22;9205;52.032;4.314;2022-07-29T10:50:07;22.10;99.90
18160;DHT22;9205;52.032;4.314;2022-07-29T10:52:53;22.30;99.90
18160;DHT22;9205;52.032;4.314;2022-07-29T10:55:38;22.70;99.90
18160;DHT22;9205;52.032;4.314;2022-07-29T10:58:13;23.70;99.90
18160;DHT22;9205;52.032;4.314;2022-07-29T11:00:41;24.30;99.90
18160;DHT22;9205;52.032;4.314;2022-07-29T11:03:45;24.90;99.90
18160;DHT22;9205;52.032;4.314;2022-07-29T11:06:14;24.90;99.90
18160;DHT22;9205;52.032;4.314;2022-07-29T11:08:42;25.10;99.90
18160;DHT22;9205;52.032;4.314;2022-07-29T11:11:37;25.40;99.90
18160;DHT22;9205;52.032;4.314;2022-07-29T11:14:08;25.20;99.90
18160;DHT22;9205;52.032;4.314;2022-07-29T11:17:00;25.20;99.90
18160;DHT22;9205;52.032;4.314;2022-07-29T11:19:29;25.40;99.90
18160;DHT22;9205;52.032;4.314;2022-07-29T11:21:57;25.50;99.90
18160;DHT22;9205;52.032;4.314;2022-07-29T11:24:26;25.50;99.90
18160;DHT22;9205;52.032;4.314;2022-07-29T11:27:24;25.50;99.90
18160;DHT22;9205;52.032;4.314;2022-07-29T11:30:06;25.70;99.90
18160;DHT22;9205;52.032;4.314;2022-07-29T11:32:37;25.80;99.90
18160;DHT22;9205;52.032;4.314;2022-07-29T11:35:13;25.90;99.90
18160;DHT22;9205;52.032;4.314;2022-07-29T11:37:43;26.10;99.90
18160;DHT22;9205;52.032;4.314;2022-07-29T11:40:13;26.10;99.90
18160;DHT22;9205;52.032;4.314;2022-07-29T11:42:48;26.00;99.90
18160;DHT22;9205;52.032;4.314;2022-07-29T11:45:31;26.00;99.90
18160;DHT22;9205;52.032;4.314;2022-07-29T11:48:16;26.00;99.90
18160;DHT22;9205;52.032;4.314;2022-07-29T11:50:45;26.00;99.90
18160;DHT22;9205;52.032;4.314;2022-07-29T11:53:14;26.10;99.90
18160;DHT22;9205;52.032;4.314;2022-07-29T11:55:41;25.90;99.90
18160;DHT22;9205;52.032;4.314;2022-07-29T11:58:10;26.20;99.90
18160;DHT22;9205;52.032;4.314;2022-07-29T12:00:39;26.10;99.90
18160;DHT22;9205;52.032;4.314;2022-07-29T12:03:09;26.00;99.90
18160;DHT22;9205;52.032;4.314;2022-07-29T12:05:41;26.10;99.90
18160;DHT22;9205;52.032;4.314;2022-07-29T12:08:15;26.20;99.90
18160;DHT22;9205;52.032;4.314;2022-07-29T12:10:45;26.30;99.90
18160;DHT22;9205;52.032;4.314;2022-07-29T12:13:15;26.20;99.90
18160;DHT22;9205;52.032;4.314;2022-07-29T12:15:51;26.30;99.90
18160;DHT22;9205;52.032;4.314;2022-07-29T12:18:20;26.30;99.90
18160;DHT22;9205;52.032;4.314;2022-07-29T12:20:48;26.20;99.90
18160;DHT22;9205;52.032;4.314;2022-07-29T12:23:15;26.30;99.90
18160;DHT22;9205;52.032;4.314;2022-07-29T12:25:43;26.40;99.90
18160;DHT22;9205;52.032;4.314;2022-07-29T12:28:13;26.40;99.90
18160;DHT22;9205;52.032;4.314;2022-07-29T12:30:45;26.40;99.90
18160;DHT22;9205;52.032;4.314;2022-07-29T12:33:17;26.40;99.90
18160;DHT22;9205;52.032;4.314;2022-07-29T12:35:48;26.60;99.90
18160;DHT22;9205;52.032;4.314;2022-07-29T12:38:17;26.60;99.90
18160;DHT22;9205;52.032;4.314;2022-07-29T12:40:46;26.10;99.90
18160;DHT22;9205;52.032;4.314;2022-07-29T12:43:17;26.00;99.90
18160;DHT22;9205;52.032;4.314;2022-07-29T12:45:49;26.10;99.90
18160;DHT22;9205;52.032;4.314;2022-07-29T12:48:22;26.10;99.90
18160;DHT22;9205;52.032;4.314;2022-07-29T12:51:00;26.00;99.90
18160;DHT22;9205;52.032;4.314;2022-07-29T12:53:29;26.10;99.90
18160;DHT22;9205;52.032;4.314;2022-07-29T12:55:58;26.00;99.90
18160;DHT22;9205;52.032;4.314;2022-07-29T12:58:33;26.10;99.90
18160;DHT22;9205;52.032;4.314;2022-07-29T13:01:07;25.90;99.90
18160;DHT22;9205;52.032;4.314;2022-07-29T13:03:44;25.90;99.90
18160;DHT22;9205;52.032;4.314;2022-07-29T13:06:31;26.00;99.90
18160;DHT22;9205;52.032;4.314;2022-07-29T13:09:08;26.00;99.90
18160;DHT22;9205;52.032;4.314;2022-07-29T13:11:39;26.00;99.90
18160;DHT22;9205;52.032;4.314;2022-07-29T13:14:11;25.80;99.90
18160;DHT22;9205;52.032;4.314;2022-07-29T13:17:01;25.90;99.90
18160;DHT22;9205;52.032;4.314;2022-07-29T13:19:38;25.60;99.90
18160;DHT22;9205;52.032;4.314;2022-07-29T13:22:07;25.60;99.90
18160;DHT22;9205;52.032;4.314;2022-07-29T13:24:48;25.50;99.90
18160;DHT22;9205;52.032;4.314;2022-07-29T13:27:19;25.40;99.90
18160;DHT22;9205;52.032;4.314;2022-07-29T13:29:51;25.50;99.90
18160;DHT22;9205;52.032;4.314;2022-07-29T13:32:22;25.70;99.90
18160;DHT22;9205;52.032;4.314;2022-07-29T13:34:51;25.70;99.90
18160;DHT22;9205;52.032;4.314;2022-07-29T13:37:19;25.70;99.90
18160;DHT22;9205;52.032;4.314;2022-07-29T13:39:49;25.70;99.90
18160;DHT22;9205;52.032;4.314;2022-07-29T13:42:16;25.50;99.90
18160;DHT22;9205;52.032;4.314;2022-07-29T13:44:44;25.60;99.90
18160;DHT22;9205;52.032;4.314;2022-07-29T13:47:12;25.30;99.90
18160;DHT22;9205;52.032;4.314;2022-07-29T13:49:41;25.50;99.90
18160;DHT22;9205;52.032;4.314;2022-07-29T13:52:08;25.70;99.90
18160;DHT22;9205;52.032;4.314;2022-07-29T13:54:37;25.70;99.90
18160;DHT22;9205;52.032;4.314;2022-07-29T13:57:05;25.70;99.90
18160;DHT22;9205;52.032;4.314;2022-07-29T13:59:33;25.50;99.90
18160;DHT22;9205;52.032;4.314;2022-07-29T14:02:00;25.40;99.90
18160;DHT22;9205;52.032;4.314;2022-07-29T14:04:29;25.50;99.90
18160;DHT22;9205;52.032;4.314;2022-07-29T14:06:59;25.60;99.90
18160;DHT22;9205;52.032;4.314;2022-07-29T14:09:26;25.70;99.90
18160;DHT22;9205;52.032;4.314;2022-07-29T14:11:53;25.60;99.90
18160;DHT22;9205;52.032;4.314;2022-07-29T14:14:20;25.60;99.90
18160;DHT22;9205;52.032;4.314;2022-07-29T14:16:48;25.50;99.90
18160;DHT22;9205;52.032;4.314;2022-07-29T14:19:15;25.80;99.90
18160;DHT22;9205;52.032;4.314;2022-07-29T14:21:46;25.50;99.90
18160;DHT22;9205;52.032;4.314;2022-07-29T14:24:13;25.40;99.90
18160;DHT22;9205;52.032;4.314;2022-07-29T14:26:40;25.40;99.90
18160;DHT22;9205;52.032;4.314;2022-07-29T14:29:08;25.50;99.90
18160;DHT22;9205;52.032;4.314;2022-07-29T14:31:35;25.30;99.90
18160;DHT22;9205;52.032;4.314;2022-07-29T14:34:02;25.40;99.90
18160;DHT22;9205;52.032;4.314;2022-07-29T14:36:29;25.40;99.90
18160;DHT22;9205;52.032;4.314;2022-07-29T14:38:58;25.40;99.90
18160;DHT22;9205;52.032;4.314;2022-07-29T14:41:26;25.50;99.90
18160;DHT22;9205;52.032;4.314;2022-07-29T14:43:53;25.50;99.90
18160;DHT22;9205;52.032;4.314;2022-07-29T14:46:21;25.30;99.90
18160;DHT22;9205;52.032;4.314;2022-07-29T14:48:48;25.10;99.90
18160;DHT22;9205;52.032;4.314;2022-07-29T14:51:15;25.00;99.90
18160;DHT22;9205;52.032;4.314;2022-07-29T14:53:42;25.10;99.90
18160;DHT22;9205;52.032;4.314;2022-07-29T14:56:11;25.30;99.90
18160;DHT22;9205;52.032;4.314;2022-07-29T14:58:38;24.90;99.90
18160;DHT22;9205;52.032;4.314;2022-07-29T15:01:08;24.80;99.90
18160;DHT22;9205;52.032;4.314;2022-07-29T15:03:35;24.70;99.90
18160;DHT22;9205;52.032;4.314;2022-07-29T15:06:02;24.80;99.90
18160;DHT22;9205;52.032;4.314;2022-07-29T15:08:30;24.80;99.90
18160;DHT22;9205;52.032;4.314;2022-07-29T15:10:57;24.80;99.90
18160;DHT22;9205;52.032;4.314;2022-07-29T15:13:26;24.60;99.90
18160;DHT22;9205;52.032;4.314;2022-07-29T15:15:53;24.60;99.90
18160;DHT22;9205;52.032;4.314;2022-07-29T15:18:20;24.70;99.90
18160;DHT22;9205;52.032;4.314;2022-07-29T15:20:47;24.70;99.90
18160;DHT22;9205;52.032;4.314;2022-07-29T15:23:14;24.70;99.90
18160;DHT22;9205;52.032;4.314;2022-07-29T15:25:42;24.60;99.90
18160;DHT22;9205;52.032;4.314;2022-07-29T15:28:09;24.50;99.90
18160;DHT22;9205;52.032;4.314;2022-07-29T15:30:37;24.50;99.90
18160;DHT22;9205;52.032;4.314;2022-07-29T15:33:07;24.70;99.90
18160;DHT22;9205;52.032;4.314;2022-07-29T15:35:35;24.80;99.90
18160;DHT22;9205;52.032;4.314;2022-07-29T15:38:03;24.70;99.90
18160;DHT22;9205;52.032;4.314;2022-07-29T15:40:30;24.70;99.90
18160;DHT22;9205;52.032;4.314;2022-07-29T15:42:59;24.60;99.90
18160;DHT22;9205;52.032;4.314;2022-07-29T15:45:37;24.60;99.90
18160;DHT22;9205;52.032;4.314;2022-07-29T15:48:05;24.50;99.90
18160;DHT22;9205;52.032;4.314;2022-07-29T15:50:34;24.60;99.90
18160;DHT22;9205;52.032;4.314;2022-07-29T15:53:02;24.70;99.90
18160;DHT22;9205;52.032;4.314;2022-07-29T15:55:29;24.80;99.90
18160;DHT22;9205;52.032;4.314;2022-07-29T15:57:56;24.80;99.90
18160;DHT22;9205;52.032;4.314;2022-07-29T16:00:24;24.50;99.90
18160;DHT22;9205;52.032;4.314;2022-07-29T16:02:52;24.60;99.90
18160;DHT22;9205;52.032;4.314;2022-07-29T16:05:20;24.50;99.90